sensor_id;sensor_type;location;lat;lon;timestamp;P1;durP1;ratioP1;P2;durP2;ratioP2
71646;SDS011;59706;45.634;11.704;2023-04-01T00:01:45;30.10;;;18.10;;
71646;SDS011;59706;45.634;11.704;2023-04-01T00:04:13;29.70;;;18.90;;
71646;SDS011;59706;45.634;11.704;2023-04-01T00:06:41;29.40;;;18.50;;
71646;SDS011;59706;45.634;11.704;2023-04-01T00:09:08;31.10;;;18.70;;
71646;SDS011;59706;45.634;11.704;2023-04-01T00:11:35;31.40;;;18.90;;
71646;SDS011;59706;45.634;11.704;2023-04-01T00:14:02;29.10;;;19.10;;
71646;SDS011;59706;45.634;11.704;2023-04-01T00:16:30;33.30;;;19.70;;
71646;SDS011;59706;45.634;11.704;2023-04-01T00:18:56;30.60;;;18.90;;
71646;SDS011;59706;45.634;11.704;2023-04-01T00:21:24;32.00;;;18.60;;
71646;SDS011;59706;45.634;11.704;2023-04-01T00:23:51;29.20;;;18.90;;
71646;SDS011;59706;45.634;11.704;2023-04-01T00:26:18;26.80;;;16.60;;
71646;SDS011;59706;45.634;11.704;2023-04-01T00:28:47;25.50;;;16.70;;
71646;SDS011;59706;45.634;11.704;2023-04-01T00:31:14;29.00;;;18.30;;
71646;SDS011;59706;45.634;11.704;2023-04-01T00:33:40;26.20;;;17.10;;
71646;SDS011;59706;45.634;11.704;2023-04-01T00:36:15;29.20;;;18.30;;
71646;SDS011;59706;45.634;11.704;2023-04-01T00:39:00;28.80;;;18.80;;
71646;SDS011;59706;45.634;11.704;2023-04-01T00:41:28;29.90;;;18.30;;
71646;SDS011;59706;45.634;11.704;2023-04-01T00:44:24;31.30;;;20.00;;
71646;SDS011;59706;45.634;11.704;2023-04-01T00:46:52;27.70;;;16.80;;
71646;SDS011;59706;45.634;11.704;2023-04-01T00:49:22;21.80;;;15.20;;
71646;SDS011;59706;45.634;11.704;2023-04-01T00:51:53;22.70;;;15.10;;
71646;SDS011;59706;45.634;11.704;2023-04-01T00:54:23;25.60;;;14.30;;
71646;SDS011;59706;45.634;11.704;2023-04-01T00:57:00;24.00;;;14.80;;
71646;SDS011;59706;45.634;11.704;2023-04-01T00:59:34;21.80;;;14.50;;
71646;SDS011;59706;45.634;11.704;2023-04-01T01:02:07;20.40;;;13.00;;
71646;SDS011;59706;45.634;11.704;2023-04-01T01:04:34;20.60;;;14.10;;
71646;SDS011;59706;45.634;11.704;2023-04-01T01:07:11;21.30;;;14.90;;
71646;SDS011;59706;45.634;11.704;2023-04-01T01:09:41;20.40;;;14.30;;
71646;SDS011;59706;45.634;11.704;2023-04-01T01:12:41;23.70;;;14.80;;
71646;SDS011;59706;45.634;11.704;2023-04-01T01:15:37;22.00;;;14.60;;
71646;SDS011;59706;45.634;11.704;2023-04-01T01:27:37;21.70;;;14.90;;
71646;SDS011;59706;45.634;11.704;2023-04-01T01:30:35;20.30;;;13.40;;
71646;SDS011;59706;45.634;11.704;2023-04-01T01:36:06;18.90;;;12.20;;
71646;SDS011;59706;45.634;11.704;2023-04-01T01:38:34;18.70;;;11.10;;
71646;SDS011;59706;45.634;11.704;2023-04-01T01:41:03;18.70;;;12.00;;
71646;SDS011;59706;45.634;11.704;2023-04-01T01:43:35;18.60;;;12.50;;
71646;SDS011;59706;45.634;11.704;2023-04-01T01:46:30;21.90;;;13.50;;
71646;SDS011;59706;45.634;11.704;2023-04-01T01:49:00;22.50;;;14.20;;
71646;SDS011;59706;45.634;11.704;2023-04-01T01:51:27;23.60;;;14.80;;
71646;SDS011;59706;45.634;11.704;2023-04-01T01:53:54;23.80;;;15.60;;
71646;SDS011;59706;45.634;11.704;2023-04-01T01:56:24;22.00;;;15.10;;
71646;SDS011;59706;45.634;11.704;2023-04-01T01:59:04;23.10;;;14.30;;
71646;SDS011;59706;45.634;11.704;2023-04-01T02:01:37;22.50;;;14.30;;
71646;SDS011;59706;45.634;11.704;2023-04-01T02:04:06;22.70;;;14.70;;
71646;SDS011;59706;45.634;11.704;2023-04-01T02:06:37;24.50;;;14.90;;
71646;SDS011;59706;45.634;11.704;2023-04-01T02:09:07;23.80;;;15.50;;
71646;SDS011;59706;45.634;11.704;2023-04-01T02:11:52;19.90;;;12.10;;
71646;SDS011;59706;45.634;11.704;2023-04-01T02:14:26;19.70;;;12.40;;
71646;SDS011;59706;45.634;11.704;2023-04-01T02:19:39;24.00;;;15.40;;
71646;SDS011;59706;45.634;11.704;2023-04-01T02:22:14;22.20;;;14.50;;
71646;SDS011;59706;45.634;11.704;2023-04-01T02:24:45;18.70;;;12.90;;
71646;SDS011;59706;45.634;11.704;2023-04-01T02:27:12;19.00;;;12.80;;
71646;SDS011;59706;45.634;11.704;2023-04-01T02:29:39;19.70;;;13.40;;
71646;SDS011;59706;45.634;11.704;2023-04-01T02:32:08;20.50;;;13.50;;
71646;SDS011;59706;45.634;11.704;2023-04-01T02:34:34;18.60;;;12.30;;
71646;SDS011;59706;45.634;11.704;2023-04-01T02:37:01;22.40;;;14.30;;
71646;SDS011;59706;45.634;11.704;2023-04-01T02:39:28;24.10;;;14.50;;
71646;SDS011;59706;45.634;11.704;2023-04-01T02:41:55;24.40;;;14.50;;
71646;SDS011;59706;45.634;11.704;2023-04-01T02:44:23;22.10;;;14.20;;
71646;SDS011;59706;45.634;11.704;2023-04-01T02:46:50;23.60;;;13.50;;
71646;SDS011;59706;45.634;11.704;2023-04-01T02:49:18;23.40;;;14.80;;
71646;SDS011;59706;45.634;11.704;2023-04-01T02:51:45;23.80;;;14.90;;
71646;SDS011;59706;45.634;11.704;2023-04-01T02:54:12;25.40;;;14.80;;
71646;SDS011;59706;45.634;11.704;2023-04-01T02:56:39;22.80;;;14.90;;
71646;SDS011;59706;45.634;11.704;2023-04-01T03:01:36;21.20;;;13.50;;
71646;SDS011;59706;45.634;11.704;2023-04-01T03:04:22;21.10;;;13.90;;
71646;SDS011;59706;45.634;11.704;2023-04-01T03:06:49;20.90;;;13.70;;
71646;SDS011;59706;45.634;11.704;2023-04-01T03:09:17;21.10;;;13.70;;
71646;SDS011;59706;45.634;11.704;2023-04-01T03:11:44;19.30;;;13.20;;
71646;SDS011;59706;45.634;11.704;2023-04-01T03:14:11;19.40;;;13.10;;
71646;SDS011;59706;45.634;11.704;2023-04-01T03:16:38;21.60;;;13.50;;
71646;SDS011;59706;45.634;11.704;2023-04-01T03:19:05;22.00;;;14.50;;
71646;SDS011;59706;45.634;11.704;2023-04-01T03:21:33;17.80;;;11.30;;
71646;SDS011;59706;45.634;11.704;2023-04-01T03:24:01;17.60;;;12.30;;
71646;SDS011;59706;45.634;11.704;2023-04-01T03:26:28;22.40;;;13.80;;
71646;SDS011;59706;45.634;11.704;2023-04-01T03:28:55;30.10;;;18.10;;
71646;SDS011;59706;45.634;11.704;2023-04-01T03:31:23;24.60;;;14.70;;
71646;SDS011;59706;45.634;11.704;2023-04-01T03:33:50;23.40;;;14.70;;
71646;SDS011;59706;45.634;11.704;2023-04-01T03:36:17;19.50;;;13.00;;
71646;SDS011;59706;45.634;11.704;2023-04-01T03:38:44;14.90;;;10.50;;
71646;SDS011;59706;45.634;11.704;2023-04-01T03:41:16;14.70;;;10.30;;
71646;SDS011;59706;45.634;11.704;2023-04-01T03:43:43;17.70;;;11.00;;
71646;SDS011;59706;45.634;11.704;2023-04-01T03:46:10;17.00;;;11.80;;
71646;SDS011;59706;45.634;11.704;2023-04-01T03:48:36;18.20;;;12.20;;
71646;SDS011;59706;45.634;11.704;2023-04-01T03:51:07;21.10;;;12.00;;
71646;SDS011;59706;45.634;11.704;2023-04-01T03:53:35;22.40;;;13.40;;
71646;SDS011;59706;45.634;11.704;2023-04-01T03:56:10;21.30;;;12.00;;
71646;SDS011;59706;45.634;11.704;2023-04-01T03:58:37;16.50;;;9.10;;
71646;SDS011;59706;45.634;11.704;2023-04-01T04:01:24;17.80;;;11.40;;
71646;SDS011;59706;45.634;11.704;2023-04-01T04:03:52;17.70;;;11.70;;
71646;SDS011;59706;45.634;11.704;2023-04-01T04:06:20;18.30;;;11.00;;
71646;SDS011;59706;45.634;11.704;2023-04-01T04:08:46;18.10;;;11.30;;
71646;SDS011;59706;45.634;11.704;2023-04-01T04:11:13;18.00;;;11.30;;
71646;SDS011;59706;45.634;11.704;2023-04-01T04:13:42;17.40;;;11.00;;
71646;SDS011;59706;45.634;11.704;2023-04-01T04:16:11;18.90;;;11.40;;
71646;SDS011;59706;45.634;11.704;2023-04-01T04:18:37;18.60;;;12.30;;
71646;SDS011;59706;45.634;11.704;2023-04-01T04:21:04;21.50;;;12.00;;
71646;SDS011;59706;45.634;11.704;2023-04-01T04:23:32;21.90;;;13.10;;
71646;SDS011;59706;45.634;11.704;2023-04-01T04:26:06;21.80;;;13.20;;
71646;SDS011;59706;45.634;11.704;2023-04-01T04:28:35;25.70;;;13.90;;
71646;SDS011;59706;45.634;11.704;2023-04-01T04:31:02;23.30;;;12.90;;
71646;SDS011;59706;45.634;11.704;2023-04-01T04:33:30;23.00;;;13.40;;
71646;SDS011;59706;45.634;11.704;2023-04-01T04:35:58;21.70;;;12.30;;
71646;SDS011;59706;45.634;11.704;2023-04-01T04:38:26;25.30;;;14.40;;
71646;SDS011;59706;45.634;11.704;2023-04-01T04:40:53;26.40;;;13.90;;
71646;SDS011;59706;45.634;11.704;2023-04-01T04:43:20;23.90;;;14.70;;
71646;SDS011;59706;45.634;11.704;2023-04-01T04:45:48;25.20;;;14.40;;
71646;SDS011;59706;45.634;11.704;2023-04-01T04:48:16;26.40;;;14.30;;
71646;SDS011;59706;45.634;11.704;2023-04-01T04:51:12;23.90;;;12.50;;
71646;SDS011;59706;45.634;11.704;2023-04-01T04:53:44;22.00;;;13.00;;
71646;SDS011;59706;45.634;11.704;2023-04-01T04:56:11;31.30;;;16.30;;
71646;SDS011;59706;45.634;11.704;2023-04-01T04:58:38;28.60;;;13.90;;
71646;SDS011;59706;45.634;11.704;2023-04-01T05:01:13;25.40;;;13.60;;
71646;SDS011;59706;45.634;11.704;2023-04-01T05:03:42;24.10;;;13.80;;
71646;SDS011;59706;45.634;11.704;2023-04-01T05:06:11;29.60;;;14.40;;
71646;SDS011;59706;45.634;11.704;2023-04-01T05:08:39;27.10;;;15.40;;
71646;SDS011;59706;45.634;11.704;2023-04-01T05:11:17;24.60;;;13.50;;
71646;SDS011;59706;45.634;11.704;2023-04-01T05:13:45;19.30;;;11.20;;
71646;SDS011;59706;45.634;11.704;2023-04-01T05:16:15;18.80;;;10.80;;
71646;SDS011;59706;45.634;11.704;2023-04-01T05:18:43;14.90;;;8.80;;
71646;SDS011;59706;45.634;11.704;2023-04-01T05:21:12;16.60;;;9.80;;
71646;SDS011;59706;45.634;11.704;2023-04-01T05:23:40;21.90;;;11.40;;
71646;SDS011;59706;45.634;11.704;2023-04-01T05:26:10;25.70;;;13.50;;
71646;SDS011;59706;45.634;11.704;2023-04-01T05:28:38;25.40;;;13.80;;
71646;SDS011;59706;45.634;11.704;2023-04-01T05:31:07;24.60;;;14.30;;
71646;SDS011;59706;45.634;11.704;2023-04-01T05:33:35;30.80;;;17.20;;
71646;SDS011;59706;45.634;11.704;2023-04-01T05:36:10;36.00;;;19.70;;
71646;SDS011;59706;45.634;11.704;2023-04-01T05:38:38;33.60;;;19.10;;
71646;SDS011;59706;45.634;11.704;2023-04-01T05:41:06;36.00;;;19.80;;
71646;SDS011;59706;45.634;11.704;2023-04-01T05:43:35;34.00;;;19.30;;
71646;SDS011;59706;45.634;11.704;2023-04-01T05:46:02;35.10;;;18.10;;
71646;SDS011;59706;45.634;11.704;2023-04-01T05:48:30;31.20;;;17.20;;
71646;SDS011;59706;45.634;11.704;2023-04-01T05:50:57;26.90;;;14.50;;
71646;SDS011;59706;45.634;11.704;2023-04-01T05:53:25;26.40;;;15.40;;
71646;SDS011;59706;45.634;11.704;2023-04-01T05:55:52;32.40;;;16.90;;
71646;SDS011;59706;45.634;11.704;2023-04-01T05:58:19;30.10;;;16.40;;
71646;SDS011;59706;45.634;11.704;2023-04-01T06:00:47;29.40;;;17.00;;
71646;SDS011;59706;45.634;11.704;2023-04-01T06:03:14;27.20;;;16.10;;
71646;SDS011;59706;45.634;11.704;2023-04-01T06:05:43;28.50;;;17.70;;
71646;SDS011;59706;45.634;11.704;2023-04-01T06:08:16;29.10;;;17.30;;
71646;SDS011;59706;45.634;11.704;2023-04-01T06:13:56;28.90;;;16.70;;
71646;SDS011;59706;45.634;11.704;2023-04-01T06:22:41;34.40;;;17.30;;
71646;SDS011;59706;45.634;11.704;2023-04-01T06:31:47;32.50;;;17.50;;
71646;SDS011;59706;45.634;11.704;2023-04-01T06:34:50;30.00;;;16.50;;
71646;SDS011;59706;45.634;11.704;2023-04-01T06:49:06;26.40;;;15.00;;
71646;SDS011;59706;45.634;11.704;2023-04-01T06:51:43;27.50;;;15.00;;
71646;SDS011;59706;45.634;11.704;2023-04-01T06:54:26;30.10;;;14.70;;
71646;SDS011;59706;45.634;11.704;2023-04-01T06:57:03;23.90;;;14.80;;
71646;SDS011;59706;45.634;11.704;2023-04-01T06:59:41;25.90;;;14.50;;
71646;SDS011;59706;45.634;11.704;2023-04-01T07:02:50;25.20;;;14.70;;
71646;SDS011;59706;45.634;11.704;2023-04-01T07:05:25;25.80;;;15.20;;
71646;SDS011;59706;45.634;11.704;2023-04-01T07:07:59;23.80;;;13.80;;
71646;SDS011;59706;45.634;11.704;2023-04-01T07:13:20;25.50;;;15.00;;
71646;SDS011;59706;45.634;11.704;2023-04-01T07:21:43;26.80;;;15.70;;
71646;SDS011;59706;45.634;11.704;2023-04-01T07:24:22;27.10;;;14.90;;
71646;SDS011;59706;45.634;11.704;2023-04-01T07:26:56;23.40;;;13.50;;
71646;SDS011;59706;45.634;11.704;2023-04-01T07:29:25;26.90;;;15.70;;
71646;SDS011;59706;45.634;11.704;2023-04-01T07:32:14;25.70;;;14.90;;
71646;SDS011;59706;45.634;11.704;2023-04-01T07:37:55;23.40;;;15.50;;
71646;SDS011;59706;45.634;11.704;2023-04-01T07:40:49;24.30;;;15.00;;
71646;SDS011;59706;45.634;11.704;2023-04-01T07:43:54;25.60;;;15.20;;
71646;SDS011;59706;45.634;11.704;2023-04-01T07:58:44;26.10;;;15.50;;
71646;SDS011;59706;45.634;11.704;2023-04-01T08:01:44;24.70;;;16.50;;
71646;SDS011;59706;45.634;11.704;2023-04-01T08:05:25;25.70;;;15.30;;
71646;SDS011;59706;45.634;11.704;2023-04-01T08:07:26;22.60;;;14.30;;
71646;SDS011;59706;45.634;11.704;2023-04-01T08:10:16;26.70;;;15.70;;
71646;SDS011;59706;45.634;11.704;2023-04-01T08:16:18;24.60;;;14.70;;
71646;SDS011;59706;45.634;11.704;2023-04-01T08:22:10;23.70;;;13.30;;
71646;SDS011;59706;45.634;11.704;2023-04-01T08:24:42;21.50;;;12.50;;
71646;SDS011;59706;45.634;11.704;2023-04-01T08:27:22;20.80;;;11.90;;
71646;SDS011;59706;45.634;11.704;2023-04-01T08:30:17;20.90;;;13.00;;
71646;SDS011;59706;45.634;11.704;2023-04-01T08:32:54;20.10;;;12.70;;
71646;SDS011;59706;45.634;11.704;2023-04-01T08:35:38;19.90;;;12.20;;
71646;SDS011;59706;45.634;11.704;2023-04-01T08:38:24;21.40;;;11.80;;
71646;SDS011;59706;45.634;11.704;2023-04-01T08:49:34;22.20;;;13.10;;
71646;SDS011;59706;45.634;11.704;2023-04-01T08:52:24;21.50;;;13.10;;
71646;SDS011;59706;45.634;11.704;2023-04-01T09:07:52;19.50;;;10.60;;
71646;SDS011;59706;45.634;11.704;2023-04-01T09:10:55;18.10;;;10.40;;
71646;SDS011;59706;45.634;11.704;2023-04-01T09:17:36;17.50;;;9.90;;
71646;SDS011;59706;45.634;11.704;2023-04-01T09:37:19;16.80;;;10.00;;
71646;SDS011;59706;45.634;11.704;2023-04-01T09:40:13;15.50;;;8.00;;
71646;SDS011;59706;45.634;11.704;2023-04-01T10:24:38;14.50;;;7.50;;
71646;SDS011;59706;45.634;11.704;2023-04-01T10:30:20;14.50;;;8.10;;
71646;SDS011;59706;45.634;11.704;2023-04-01T10:39:17;14.20;;;8.60;;
71646;SDS011;59706;45.634;11.704;2023-04-01T10:42:15;14.20;;;7.60;;
71646;SDS011;59706;45.634;11.704;2023-04-01T10:48:19;15.50;;;7.50;;
71646;SDS011;59706;45.634;11.704;2023-04-01T10:54:00;13.90;;;7.70;;
71646;SDS011;59706;45.634;11.704;2023-04-01T11:11:44;15.20;;;8.60;;
71646;SDS011;59706;45.634;11.704;2023-04-01T11:17:40;16.20;;;8.30;;
71646;SDS011;59706;45.634;11.704;2023-04-01T11:23:07;15.10;;;8.20;;
71646;SDS011;59706;45.634;11.704;2023-04-01T11:40:20;18.10;;;9.30;;
71646;SDS011;59706;45.634;11.704;2023-04-01T11:46:11;17.90;;;10.20;;
71646;SDS011;59706;45.634;11.704;2023-04-01T11:48:58;16.40;;;9.90;;
71646;SDS011;59706;45.634;11.704;2023-04-01T11:51:43;16.20;;;9.20;;
71646;SDS011;59706;45.634;11.704;2023-04-01T12:01:27;16.80;;;9.70;;
71646;SDS011;59706;45.634;11.704;2023-04-01T12:04:51;17.10;;;10.10;;
71646;SDS011;59706;45.634;11.704;2023-04-01T12:31:34;19.60;;;11.90;;
71646;SDS011;59706;45.634;11.704;2023-04-01T12:57:21;17.80;;;10.50;;
71646;SDS011;59706;45.634;11.704;2023-04-01T13:08:48;14.30;;;9.00;;
71646;SDS011;59706;45.634;11.704;2023-04-01T13:17:27;16.60;;;10.20;;
71646;SDS011;59706;45.634;11.704;2023-04-01T13:20:02;18.90;;;10.80;;
71646;SDS011;59706;45.634;11.704;2023-04-01T13:22:45;18.50;;;10.80;;
71646;SDS011;59706;45.634;11.704;2023-04-01T13:25:37;17.70;;;10.60;;
71646;SDS011;59706;45.634;11.704;2023-04-01T13:37:05;18.50;;;10.90;;
71646;SDS011;59706;45.634;11.704;2023-04-01T13:43:19;16.90;;;10.90;;
71646;SDS011;59706;45.634;11.704;2023-04-01T13:51:29;16.80;;;10.90;;
71646;SDS011;59706;45.634;11.704;2023-04-01T14:00:03;19.20;;;11.70;;
71646;SDS011;59706;45.634;11.704;2023-04-01T14:09:08;19.60;;;12.10;;
71646;SDS011;59706;45.634;11.704;2023-04-01T14:20:48;19.40;;;12.90;;
71646;SDS011;59706;45.634;11.704;2023-04-01T14:37:57;18.10;;;10.50;;
71646;SDS011;59706;45.634;11.704;2023-04-01T14:50:02;17.70;;;10.20;;
71646;SDS011;59706;45.634;11.704;2023-04-01T14:52:33;18.70;;;10.90;;
71646;SDS011;59706;45.634;11.704;2023-04-01T14:55:21;18.90;;;10.30;;
71646;SDS011;59706;45.634;11.704;2023-04-01T15:06:35;16.50;;;8.80;;
71646;SDS011;59706;45.634;11.704;2023-04-01T15:15:27;15.40;;;8.60;;
71646;SDS011;59706;45.634;11.704;2023-04-01T15:21:18;18.90;;;9.10;;
71646;SDS011;59706;45.634;11.704;2023-04-01T15:25:05;17.60;;;9.70;;
71646;SDS011;59706;45.634;11.704;2023-04-01T15:27:11;19.90;;;10.80;;
71646;SDS011;59706;45.634;11.704;2023-04-01T15:35:43;20.00;;;11.20;;
71646;SDS011;59706;45.634;11.704;2023-04-01T15:43:48;19.70;;;10.90;;
71646;SDS011;59706;45.634;11.704;2023-04-01T15:46:43;21.00;;;11.90;;
71646;SDS011;59706;45.634;11.704;2023-04-01T15:58:57;19.20;;;9.50;;
71646;SDS011;59706;45.634;11.704;2023-04-01T16:03:54;18.80;;;11.20;;
71646;SDS011;59706;45.634;11.704;2023-04-01T16:15:23;17.40;;;10.90;;
71646;SDS011;59706;45.634;11.704;2023-04-01T16:20:45;20.50;;;12.20;;
71646;SDS011;59706;45.634;11.704;2023-04-01T16:23:34;19.60;;;11.80;;
71646;SDS011;59706;45.634;11.704;2023-04-01T16:26:08;18.10;;;11.20;;
71646;SDS011;59706;45.634;11.704;2023-04-01T16:34:27;18.50;;;11.00;;
71646;SDS011;59706;45.634;11.704;2023-04-01T16:43:12;18.50;;;11.20;;
71646;SDS011;59706;45.634;11.704;2023-04-01T16:45:45;19.10;;;11.50;;
71646;SDS011;59706;45.634;11.704;2023-04-01T16:48:34;20.50;;;12.00;;
71646;SDS011;59706;45.634;11.704;2023-04-01T16:51:15;21.70;;;11.30;;
71646;SDS011;59706;45.634;11.704;2023-04-01T16:57:03;22.80;;;12.40;;
71646;SDS011;59706;45.634;11.704;2023-04-01T16:59:47;24.10;;;13.00;;
71646;SDS011;59706;45.634;11.704;2023-04-01T17:02:46;21.10;;;12.30;;
71646;SDS011;59706;45.634;11.704;2023-04-01T17:05:16;24.30;;;13.30;;
71646;SDS011;59706;45.634;11.704;2023-04-01T17:07:57;29.10;;;16.10;;
71646;SDS011;59706;45.634;11.704;2023-04-01T17:10:59;25.30;;;16.30;;
71646;SDS011;59706;45.634;11.704;2023-04-01T17:13:37;22.30;;;13.30;;
71646;SDS011;59706;45.634;11.704;2023-04-01T17:22:33;25.60;;;12.70;;
71646;SDS011;59706;45.634;11.704;2023-04-01T17:28:16;25.50;;;14.60;;
71646;SDS011;59706;45.634;11.704;2023-04-01T17:36:49;28.00;;;15.60;;
71646;SDS011;59706;45.634;11.704;2023-04-01T17:39:27;26.50;;;15.30;;
71646;SDS011;59706;45.634;11.704;2023-04-01T17:42:06;25.50;;;14.40;;
71646;SDS011;59706;45.634;11.704;2023-04-01T17:44:57;29.20;;;18.60;;
71646;SDS011;59706;45.634;11.704;2023-04-01T17:50:22;32.20;;;17.60;;
71646;SDS011;59706;45.634;11.704;2023-04-01T17:56:36;22.20;;;13.00;;
71646;SDS011;59706;45.634;11.704;2023-04-01T17:59:38;21.00;;;11.50;;
71646;SDS011;59706;45.634;11.704;2023-04-01T18:02:24;21.00;;;12.70;;
71646;SDS011;59706;45.634;11.704;2023-04-01T18:22:26;22.50;;;12.90;;
71646;SDS011;59706;45.634;11.704;2023-04-01T18:39:17;22.20;;;13.00;;
71646;SDS011;59706;45.634;11.704;2023-04-01T18:44:56;19.80;;;11.70;;
71646;SDS011;59706;45.634;11.704;2023-04-01T18:48:16;17.80;;;9.90;;
71646;SDS011;59706;45.634;11.704;2023-04-01T18:50:56;16.80;;;9.80;;
71646;SDS011;59706;45.634;11.704;2023-04-01T18:53:48;19.00;;;10.90;;
71646;SDS011;59706;45.634;11.704;2023-04-01T18:56:37;19.50;;;11.00;;
71646;SDS011;59706;45.634;11.704;2023-04-01T18:59:53;21.60;;;11.10;;
71646;SDS011;59706;45.634;11.704;2023-04-01T19:02:48;22.20;;;11.70;;
71646;SDS011;59706;45.634;11.704;2023-04-01T19:05:33;22.10;;;14.20;;
71646;SDS011;59706;45.634;11.704;2023-04-01T19:14:23;19.80;;;12.50;;
71646;SDS011;59706;45.634;11.704;2023-04-01T19:17:16;19.20;;;12.20;;
71646;SDS011;59706;45.634;11.704;2023-04-01T19:31:51;22.90;;;14.10;;
71646;SDS011;59706;45.634;11.704;2023-04-01T19:37:40;22.10;;;12.50;;
71646;SDS011;59706;45.634;11.704;2023-04-01T19:57:15;26.00;;;14.60;;
71646;SDS011;59706;45.634;11.704;2023-04-01T20:00:02;22.40;;;14.20;;
71646;SDS011;59706;45.634;11.704;2023-04-01T20:05:38;24.50;;;14.00;;
71646;SDS011;59706;45.634;11.704;2023-04-01T20:08:14;26.10;;;14.10;;
71646;SDS011;59706;45.634;11.704;2023-04-01T20:11:21;28.40;;;16.30;;
71646;SDS011;59706;45.634;11.704;2023-04-01T20:14:15;24.80;;;14.60;;
71646;SDS011;59706;45.634;11.704;2023-04-01T20:17:02;24.50;;;15.20;;
71646;SDS011;59706;45.634;11.704;2023-04-01T20:19:59;28.70;;;15.40;;
71646;SDS011;59706;45.634;11.704;2023-04-01T20:25:20;29.80;;;15.40;;
71646;SDS011;59706;45.634;11.704;2023-04-01T20:45:35;27.80;;;15.60;;
71646;SDS011;59706;45.634;11.704;2023-04-01T20:56:30;25.70;;;14.80;;
71646;SDS011;59706;45.634;11.704;2023-04-01T21:01:51;28.30;;;16.10;;
71646;SDS011;59706;45.634;11.704;2023-04-01T21:04:33;27.40;;;16.50;;
71646;SDS011;59706;45.634;11.704;2023-04-01T21:14:15;21.40;;;13.00;;
71646;SDS011;59706;45.634;11.704;2023-04-01T21:19:50;20.60;;;12.80;;
71646;SDS011;59706;45.634;11.704;2023-04-01T21:28:21;23.40;;;13.70;;
71646;SDS011;59706;45.634;11.704;2023-04-01T21:31:22;21.70;;;12.80;;
71646;SDS011;59706;45.634;11.704;2023-04-01T21:34:04;23.10;;;14.20;;
71646;SDS011;59706;45.634;11.704;2023-04-01T21:37:14;22.90;;;13.60;;
71646;SDS011;59706;45.634;11.704;2023-04-01T22:08:52;19.70;;;11.90;;
71646;SDS011;59706;45.634;11.704;2023-04-01T22:16:58;21.50;;;12.40;;
71646;SDS011;59706;45.634;11.704;2023-04-01T22:31:14;20.90;;;13.00;;
71646;SDS011;59706;45.634;11.704;2023-04-01T22:34:00;21.90;;;12.60;;
71646;SDS011;59706;45.634;11.704;2023-04-01T22:37:02;25.00;;;12.70;;
71646;SDS011;59706;45.634;11.704;2023-04-01T22:42:33;20.00;;;11.20;;
71646;SDS011;59706;45.634;11.704;2023-04-01T22:51:12;19.80;;;11.50;;
71646;SDS011;59706;45.634;11.704;2023-04-01T22:56:48;22.00;;;12.30;;
71646;SDS011;59706;45.634;11.704;2023-04-01T22:59:24;18.90;;;11.60;;
71646;SDS011;59706;45.634;11.704;2023-04-01T23:01:57;18.50;;;11.80;;
71646;SDS011;59706;45.634;11.704;2023-04-01T23:04:32;23.20;;;13.80;;
71646;SDS011;59706;45.634;11.704;2023-04-01T23:07:11;22.70;;;14.00;;
71646;SDS011;59706;45.634;11.704;2023-04-01T23:09:59;21.40;;;12.20;;
71646;SDS011;59706;45.634;11.704;2023-04-01T23:12:29;21.70;;;13.20;;
71646;SDS011;59706;45.634;11.704;2023-04-01T23:15:00;20.80;;;12.70;;
71646;SDS011;59706;45.634;11.704;2023-04-01T23:23:25;19.50;;;12.50;;
71646;SDS011;59706;45.634;11.704;2023-04-01T23:26:43;20.50;;;12.60;;
71646;SDS011;59706;45.634;11.704;2023-04-01T23:29:36;21.70;;;12.60;;
71646;SDS011;59706;45.634;11.704;2023-04-01T23:32:17;20.90;;;12.70;;
71646;SDS011;59706;45.634;11.704;2023-04-01T23:34:53;20.90;;;12.70;;
71646;SDS011;59706;45.634;11.704;2023-04-01T23:37:23;21.10;;;13.00;;
71646;SDS011;59706;45.634;11.704;2023-04-01T23:39:58;20.40;;;13.20;;
71646;SDS011;59706;45.634;11.704;2023-04-01T23:42:30;20.50;;;13.20;;
71646;SDS011;59706;45.634;11.704;2023-04-01T23:45:01;22.40;;;13.60;;
71646;SDS011;59706;45.634;11.704;2023-04-01T23:47:32;21.00;;;13.30;;
71646;SDS011;59706;45.634;11.704;2023-04-01T23:50:07;21.00;;;12.80;;
71646;SDS011;59706;45.634;11.704;2023-04-01T23:53:02;20.90;;;12.40;;
71646;SDS011;59706;45.634;11.704;2023-04-01T23:55:34;20.40;;;12.40;;
71646;SDS011;59706;45.634;11.704;2023-04-01T23:58:27;20.00;;;11.90;;
